Time,TemperatureF,DewpointF,PressureIn,WindDirection,WindDirectionDegrees,WindSpeedMPH,WindSpeedGustMPH,Humidity,HourlyPrecipIn,Conditions,Clouds,dailyrainin,SoftwareType,DateUTC
2015-09-01 00:00:00,52.4,45.1,29.99,ESE,105,1.0,1.0,76,0.00,,,0.00,Wunderground v.1.15,2015-09-01 07:00:00,
2015-09-01 00:05:00,52.2,44.9,29.99,ESE,108,1.0,2.0,76,0.00,,,0.00,Wunderground v.1.15,2015-09-01 07:05:00,
2015-09-01 00:11:00,52.3,44.3,29.99,ESE,103,1.0,1.0,74,0.00,,,0.00,Wunderground v.1.15,2015-09-01 07:11:00,
2015-09-01 00:17:00,52.5,44.8,29.99,ESE,103,0.0,1.0,75,0.00,,,0.00,Wunderground v.1.15,2015-09-01 07:17:00,
2015-09-01 00:22:00,52.4,44.4,29.99,NNE,30,0.0,0.0,74,0.00,,,0.00,Wunderground v.1.15,2015-09-01 07:22:00,
2015-09-01 00:28:00,52.5,44.4,29.99,NNE,30,0.0,0.0,74,0.00,,,0.00,Wunderground v.1.15,2015-09-01 07:28:00,
2015-09-01 00:34:00,52.8,44.7,29.99,NNE,30,0.0,0.0,74,0.00,,,0.00,Wunderground v.1.15,2015-09-01 07:34:00,
2015-09-01 00:40:00,51.9,44.6,29.99,West,278,0.0,0.0,76,0.00,,,0.00,Wunderground v.1.15,2015-09-01 07:40:00,
2015-09-01 00:46:00,50.9,44.3,29.99,SSE,152,0.0,0.0,78,0.00,,,0.00,Wunderground v.1.15,2015-09-01 07:46:00,
2015-09-01 00:52:00,50.8,44.9,29.99,SSE,152,0.0,0.0,80,0.00,,,0.00,Wunderground v.1.15,2015-09-01 07:52:00,
2015-09-01 00:58:00,51.1,45.1,29.99,SSE,152,0.0,0.0,80,0.00,,,0.00,Wunderground v.1.15,2015-09-01 07:58:00,
2015-09-01 01:04:00,51.2,45.6,29.99,SSW,201,0.0,2.0,81,0.00,,,0.00,Wunderground v.1.15,2015-09-01 08:04:00,
2015-09-01 01:10:00,49.8,44.2,30.00,SW,219,1.0,1.0,81,0.00,,,0.00,Wunderground v.1.15,2015-09-01 08:10:00,
2015-09-01 01:15:00,48.9,44.3,30.00,SE,139,1.0,1.0,84,0.00,,,0.00,Wunderground v.1.15,2015-09-01 08:15:00,
2015-09-01 01:22:00,48.6,44.6,30.00,SSE,160,0.0,0.0,86,0.00,,,0.00,Wunderground v.1.15,2015-09-01 08:22:00,
2015-09-01 01:28:00,48.2,43.9,30.00,West,259,0.0,0.0,85,0.00,,,0.00,Wunderground v.1.15,2015-09-01 08:28:00,
2015-09-01 01:34:00,48.3,44.6,30.00,West,259,0.0,2.0,87,0.00,,,0.00,Wunderground v.1.15,2015-09-01 08:34:00,
2015-09-01 01:39:00,48.7,44.7,30.00,West,259,0.0,2.0,86,0.00,,,0.00,Wunderground v.1.15,2015-09-01 08:39:00,
2015-09-01 01:45:00,49.0,44.7,30.00,West,259,0.0,2.0,85,0.00,,,0.00,Wunderground v.1.15,2015-09-01 08:45:00,
2015-09-01 01:51:00,48.6,44.3,30.00,East,85,0.0,2.0,85,0.00,,,0.00,Wunderground v.1.15,2015-09-01 08:51:00,
2015-09-01 01:57:00,48.6,44.6,30.00,East,85,0.0,2.0,86,0.00,,,0.00,Wunderground v.1.15,2015-09-01 08:57:00,
2015-09-01 02:03:00,49.0,45.0,30.00,SE,124,0.0,0.0,86,0.00,,,0.00,Wunderground v.1.15,2015-09-01 09:03:00,
2015-09-01 02:08:00,49.7,45.1,30.00,SE,124,0.0,0.0,84,0.00,,,0.00,Wunderground v.1.15,2015-09-01 09:08:00,
2015-09-01 02:14:00,49.7,44.7,30.00,SE,124,0.0,0.0,83,0.00,,,0.00,Wunderground v.1.15,2015-09-01 09:14:00,
2015-09-01 02:20:00,49.4,44.5,30.00,SE,124,0.0,0.0,83,0.00,,,0.00,Wunderground v.1.15,2015-09-01 09:20:00,
2015-09-01 02:26:00,49.2,43.9,30.00,SE,124,0.0,0.0,82,0.00,,,0.00,Wunderground v.1.15,2015-09-01 09:26:00,
2015-09-01 02:31:00,48.9,43.3,30.00,SE,124,0.0,3.0,81,0.00,,,0.00,Wunderground v.1.15,2015-09-01 09:31:00,
2015-09-01 02:37:00,48.4,43.5,30.00,SE,124,0.0,3.0,83,0.00,,,0.00,Wunderground v.1.15,2015-09-01 09:37:00,
2015-09-01 02:43:00,48.2,43.6,30.00,SE,124,0.0,3.0,84,0.00,,,0.00,Wunderground v.1.15,2015-09-01 09:43:00,
2015-09-01 02:49:00,48.1,43.5,30.00,SE,124,0.0,3.0,84,0.00,,,0.00,Wunderground v.1.15,2015-09-01 09:49:00,
2015-09-01 02:55:00,48.1,42.9,30.00,SE,124,0.0,3.0,82,0.00,,,0.00,Wunderground v.1.15,2015-09-01 09:55:00,
2015-09-01 03:00:00,47.9,42.7,30.00,SE,124,0.0,0.0,82,0.00,,,0.00,Wunderground v.1.15,2015-09-01 10:00:00,
2015-09-01 03:05:00,47.6,42.7,30.00,West,280,0.0,0.0,83,0.00,,,0.00,Wunderground v.1.15,2015-09-01 10:05:00,
2015-09-01 03:10:00,46.9,42.6,30.00,West,280,0.0,0.0,85,0.00,,,0.00,Wunderground v.1.15,2015-09-01 10:10:00,
2015-09-01 03:16:00,46.5,42.2,30.00,West,279,0.0,0.0,85,0.00,,,0.00,Wunderground v.1.15,2015-09-01 10:16:00,
2015-09-01 03:22:00,45.9,41.6,30.00,West,280,0.0,0.0,85,0.00,,,0.00,Wunderground v.1.15,2015-09-01 10:22:00,
2015-09-01 03:27:00,45.3,41.4,30.00,West,280,0.0,0.0,86,0.00,,,0.00,Wunderground v.1.15,2015-09-01 10:27:00,
2015-09-01 03:33:00,45.2,41.9,30.00,West,280,0.0,0.0,88,0.00,,,0.00,Wunderground v.1.15,2015-09-01 10:33:00,
2015-09-01 03:39:00,45.2,41.9,30.00,West,280,0.0,0.0,88,0.00,,,0.00,Wunderground v.1.15,2015-09-01 10:39:00,
2015-09-01 03:45:00,45.2,41.9,30.00,West,280,0.0,0.0,88,0.00,,,0.00,Wunderground v.1.15,2015-09-01 10:45:00,
2015-09-01 03:51:00,45.2,42.2,30.00,West,280,0.0,0.0,89,0.00,,,0.00,Wunderground v.1.15,2015-09-01 10:51:00,
2015-09-01 03:56:00,45.3,42.2,30.00,West,280,0.0,0.0,89,0.00,,,0.00,Wunderground v.1.15,2015-09-01 10:56:00,
2015-09-01 04:02:00,45.6,42.5,30.01,West,280,0.0,0.0,89,0.00,,,0.00,Wunderground v.1.15,2015-09-01 11:02:00,
2015-09-01 04:08:00,45.6,42.5,30.00,West,280,0.0,0.0,89,0.00,,,0.00,Wunderground v.1.15,2015-09-01 11:08:00,
2015-09-01 04:14:00,45.1,41.8,30.00,East,89,0.0,0.0,88,0.00,,,0.00,Wunderground v.1.15,2015-09-01 11:14:00,
2015-09-01 04:19:00,44.9,42.1,30.00,East,89,0.0,0.0,90,0.00,,,0.00,Wunderground v.1.15,2015-09-01 11:19:00,
2015-09-01 04:26:00,45.0,42.2,30.00,East,89,0.0,0.0,90,0.00,,,0.00,Wunderground v.1.15,2015-09-01 11:26:00,
2015-09-01 04:32:00,44.9,42.1,30.00,East,89,0.0,0.0,90,0.00,,,0.00,Wunderground v.1.15,2015-09-01 11:32:00,
2015-09-01 04:38:00,44.3,41.3,30.01,SSW,211,0.0,0.0,89,0.00,,,0.00,Wunderground v.1.15,2015-09-01 11:38:00,
2015-09-01 04:43:00,43.6,40.9,30.01,SSW,212,0.0,0.0,90,0.00,,,0.00,Wunderground v.1.15,2015-09-01 11:43:00,
2015-09-01 04:49:00,43.1,40.4,30.00,SSW,211,0.0,0.0,90,0.00,,,0.00,Wunderground v.1.15,2015-09-01 11:49:00,
2015-09-01 04:55:00,43.0,40.6,30.00,SSW,211,0.0,0.0,91,0.00,,,0.00,Wunderground v.1.15,2015-09-01 11:55:00,
2015-09-01 05:00:00,42.9,40.7,30.00,SSW,211,0.0,0.0,92,0.00,,,0.00,Wunderground v.1.15,2015-09-01 12:00:00,
2015-09-01 05:06:00,42.7,40.5,30.00,SSW,211,0.0,0.0,92,0.00,,,0.00,Wunderground v.1.15,2015-09-01 12:06:00,
2015-09-01 05:12:00,42.5,40.3,30.00,SSW,211,0.0,0.0,92,0.00,,,0.00,Wunderground v.1.15,2015-09-01 12:12:00,
2015-09-01 05:17:00,42.3,40.1,30.00,SSW,211,0.0,0.0,92,0.00,,,0.00,Wunderground v.1.15,2015-09-01 12:17:00,
2015-09-01 05:23:00,42.4,40.5,30.00,SSE,150,0.0,0.0,93,0.00,,,0.00,Wunderground v.1.15,2015-09-01 12:23:00,
2015-09-01 05:28:00,42.4,40.5,30.00,SSE,150,0.0,0.0,93,0.00,,,0.00,Wunderground v.1.15,2015-09-01 12:28:00,
2015-09-01 05:34:00,42.7,41.1,30.00,SSE,150,0.0,0.0,94,0.00,,,0.00,Wunderground v.1.15,2015-09-01 12:34:00,
2015-09-01 05:39:00,42.9,41.3,30.00,SSE,150,0.0,0.0,94,0.00,,,0.00,Wunderground v.1.15,2015-09-01 12:39:00,
2015-09-01 05:45:00,43.1,41.5,30.00,SSE,149,0.0,0.0,94,0.00,,,0.00,Wunderground v.1.15,2015-09-01 12:45:00,
2015-09-01 05:51:00,43.3,41.7,30.00,SSE,150,0.0,0.0,94,0.00,,,0.00,Wunderground v.1.15,2015-09-01 12:51:00,
2015-09-01 05:57:00,43.5,41.9,30.00,SSE,150,0.0,0.0,94,0.00,,,0.00,Wunderground v.1.15,2015-09-01 12:57:00,
2015-09-01 06:03:00,43.7,42.1,30.00,SSE,150,0.0,0.0,94,0.00,,,0.00,Wunderground v.1.15,2015-09-01 13:03:00,
2015-09-01 06:08:00,43.5,41.6,30.00,SSE,150,0.0,0.0,93,0.00,,,0.00,Wunderground v.1.15,2015-09-01 13:08:00,
2015-09-01 06:14:00,43.4,41.5,30.00,SSE,150,0.0,0.0,93,0.00,,,0.00,Wunderground v.1.15,2015-09-01 13:14:00,
2015-09-01 06:20:00,43.4,41.5,30.00,SSE,150,0.0,0.0,93,0.00,,,0.00,Wunderground v.1.15,2015-09-01 13:20:00,
2015-09-01 06:26:00,43.6,42.0,30.00,SSE,150,0.0,0.0,94,0.00,,,0.00,Wunderground v.1.15,2015-09-01 13:26:00,
2015-09-01 06:31:00,43.5,41.6,30.00,SSE,150,0.0,0.0,93,0.00,,,0.00,Wunderground v.1.15,2015-09-01 13:31:00,
2015-09-01 06:37:00,43.5,41.6,30.00,SSE,150,0.0,0.0,93,0.00,,,0.00,Wunderground v.1.15,2015-09-01 13:37:00,
2015-09-01 06:43:00,43.4,41.5,30.00,SSE,166,0.0,0.0,93,0.00,,,0.00,Wunderground v.1.15,2015-09-01 13:43:00,
2015-09-01 06:49:00,43.3,41.4,30.00,SSE,166,0.0,0.0,93,0.00,,,0.00,Wunderground v.1.15,2015-09-01 13:49:00,
2015-09-01 06:55:00,43.5,41.6,30.00,SE,124,0.0,0.0,93,0.00,,,0.00,Wunderground v.1.15,2015-09-01 13:55:00,
2015-09-01 07:00:00,43.5,41.6,30.00,SE,124,0.0,0.0,93,0.00,,,0.00,Wunderground v.1.15,2015-09-01 14:00:00,
2015-09-01 07:05:00,43.5,41.6,30.00,SE,124,0.0,0.0,93,0.00,,,0.00,Wunderground v.1.15,2015-09-01 14:05:00,
2015-09-01 07:11:00,43.5,41.6,30.00,SE,124,0.0,0.0,93,0.00,,,0.00,Wunderground v.1.15,2015-09-01 14:11:00,
2015-09-01 07:17:00,43.5,41.6,30.01,SW,228,0.0,0.0,93,0.00,,,0.00,Wunderground v.1.15,2015-09-01 14:17:00,
2015-09-01 07:22:00,43.5,41.6,30.01,SW,228,0.0,0.0,93,0.00,,,0.00,Wunderground v.1.15,2015-09-01 14:22:00,
2015-09-01 07:28:00,43.6,41.7,30.01,SW,228,0.0,0.0,93,0.00,,,0.00,Wunderground v.1.15,2015-09-01 14:28:00,
2015-09-01 07:34:00,43.7,41.8,30.01,SW,228,0.0,0.0,93,0.00,,,0.00,Wunderground v.1.15,2015-09-01 14:34:00,
2015-09-01 07:40:00,44.2,42.6,30.01,SW,228,0.0,0.0,94,0.00,,,0.00,Wunderground v.1.15,2015-09-01 14:40:00,
2015-09-01 07:46:00,44.7,43.1,30.01,SW,228,0.0,0.0,94,0.00,,,0.00,Wunderground v.1.15,2015-09-01 14:46:00,
2015-09-01 07:51:00,45.3,43.7,30.01,SE,146,0.0,0.0,94,0.00,,,0.00,Wunderground v.1.15,2015-09-01 14:51:00,
2015-09-01 07:57:00,46.2,44.6,30.01,SE,146,0.0,0.0,94,0.00,,,0.00,Wunderground v.1.15,2015-09-01 14:57:00,
2015-09-01 08:03:00,47.1,45.5,30.01,SSE,147,0.0,0.0,94,0.00,,,0.00,Wunderground v.1.15,2015-09-01 15:03:00,
2015-09-01 08:09:00,48.3,46.7,30.01,SSE,147,0.0,0.0,94,0.00,,,0.00,Wunderground v.1.15,2015-09-01 15:09:00,
2015-09-01 08:14:00,50.3,48.6,30.01,SSE,147,0.0,0.0,94,0.00,,,0.00,Wunderground v.1.15,2015-09-01 15:14:00,
2015-09-01 08:21:00,51.8,49.0,30.01,SSE,148,0.0,0.0,90,0.00,,,0.00,Wunderground v.1.15,2015-09-01 15:21:00,
2015-09-01 08:27:00,53.2,49.7,30.01,SSE,149,0.0,0.0,88,0.00,,,0.00,Wunderground v.1.15,2015-09-01 15:27:00,
2015-09-01 08:33:00,53.4,48.4,30.01,SW,217,0.0,0.0,83,0.00,,,0.00,Wunderground v.1.15,2015-09-01 15:33:00,
2015-09-01 08:38:00,54.0,49.0,30.01,SW,219,0.0,0.0,83,0.00,,,0.00,Wunderground v.1.15,2015-09-01 15:38:00,
2015-09-01 08:44:00,55.6,49.2,30.00,SSW,201,0.0,0.0,79,0.00,,,0.00,Wunderground v.1.15,2015-09-01 15:44:00,
2015-09-01 08:50:00,56.5,49.4,30.01,ESE,113,0.0,0.0,77,0.00,,,0.00,Wunderground v.1.15,2015-09-01 15:50:00,
2015-09-01 08:56:00,57.6,49.7,30.00,SSE,159,0.0,2.0,75,0.00,,,0.00,Wunderground v.1.15,2015-09-01 15:56:00,
2015-09-01 09:02:00,57.9,49.3,30.00,South,173,1.0,1.0,73,0.00,,,0.00,Wunderground v.1.15,2015-09-01 16:02:00,
2015-09-01 09:07:00,58.0,49.8,30.00,SW,222,1.0,2.0,74,0.00,,,0.00,Wunderground v.1.15,2015-09-01 16:07:00,
2015-09-01 09:13:00,58.2,49.2,30.00,SE,143,2.0,3.0,72,0.00,,,0.00,Wunderground v.1.15,2015-09-01 16:13:00,
2015-09-01 09:19:00,58.7,48.9,30.00,SW,224,2.0,3.0,70,0.00,,,0.00,Wunderground v.1.15,2015-09-01 16:19:00,
2015-09-01 09:25:00,58.9,50.3,30.00,SSW,195,2.0,3.0,73,0.00,,,0.00,Wunderground v.1.15,2015-09-01 16:25:00,
2015-09-01 09:30:00,59.7,49.9,30.00,South,172,2.0,2.0,70,0.00,,,0.00,Wunderground v.1.15,2015-09-01 16:30:00,
2015-09-01 09:36:00,60.4,50.2,30.00,SSE,147,2.0,3.0,69,0.00,,,0.00,Wunderground v.1.15,2015-09-01 16:36:00,
2015-09-01 09:42:00,60.9,50.3,30.00,SSE,155,2.0,3.0,68,0.00,,,0.00,Wunderground v.1.15,2015-09-01 16:42:00,
2015-09-01 09:48:00,61.4,50.7,29.99,SSE,155,1.0,3.0,68,0.00,,,0.00,Wunderground v.1.15,2015-09-01 16:48:00,
2015-09-01 09:54:00,62.4,49.6,29.99,SSW,205,1.0,1.0,63,0.00,,,0.00,Wunderground v.1.15,2015-09-01 16:54:00,
2015-09-01 10:00:00,63.6,51.2,29.99,South,174,0.0,1.0,64,0.00,,,0.00,Wunderground v.1.15,2015-09-01 17:00:00,
2015-09-01 10:05:00,64.1,51.7,29.99,WNW,293,0.0,1.0,64,0.00,,,0.00,Wunderground v.1.15,2015-09-01 17:05:00,
2015-09-01 10:10:00,64.2,52.2,29.99,South,183,0.0,0.0,65,0.00,,,0.00,Wunderground v.1.15,2015-09-01 17:10:00,
2015-09-01 10:16:00,64.7,51.4,29.99,WSW,256,0.0,0.0,62,0.00,,,0.00,Wunderground v.1.15,2015-09-01 17:16:00,
2015-09-01 10:22:00,65.4,52.0,29.99,West,264,0.0,0.0,62,0.00,,,0.00,Wunderground v.1.15,2015-09-01 17:22:00,
2015-09-01 10:23:00,65.6,51.8,29.99,SSE,159,0.0,0.0,61,0.00,,,0.00,Wunderground v.1.15,2015-09-01 17:23:00,
2015-09-01 10:24:00,65.8,52.0,29.99,SSE,155,0.0,0.0,61,0.00,,,0.00,Wunderground v.1.15,2015-09-01 17:24:00,
2015-09-01 10:26:00,66.3,50.1,29.99,SSW,193,0.0,0.0,56,0.00,,,0.00,Wunderground v.1.15,2015-09-01 17:26:00,
2015-09-01 10:31:00,66.7,51.9,29.99,West,280,0.0,3.0,59,0.00,,,0.00,Wunderground v.1.15,2015-09-01 17:31:00,
2015-09-01 10:36:00,67.1,50.9,29.99,SW,231,0.0,3.0,56,0.00,,,0.00,Wunderground v.1.15,2015-09-01 17:36:00,
2015-09-01 10:39:00,67.5,49.3,29.98,SW,231,0.0,3.0,52,0.00,,,0.00,Wunderground v.1.15,2015-09-01 17:39:00,
2015-09-01 10:45:00,68.4,51.6,29.98,SW,217,0.0,3.0,55,0.00,,,0.00,Wunderground v.1.15,2015-09-01 17:45:00,
2015-09-01 10:51:00,69.5,50.0,29.98,SE,143,0.0,3.0,50,0.00,,,0.00,Wunderground v.1.15,2015-09-01 17:51:00,
2015-09-01 10:56:00,71.2,51.6,29.97,SE,141,0.0,3.0,50,0.00,,,0.00,Wunderground v.1.15,2015-09-01 17:56:00,
2015-09-01 11:02:00,72.0,50.7,29.97,ESE,115,0.0,2.0,47,0.00,,,0.00,Wunderground v.1.15,2015-09-01 18:02:00,
2015-09-01 11:08:00,71.6,50.3,29.97,East,85,1.0,2.0,47,0.00,,,0.00,Wunderground v.1.15,2015-09-01 18:08:00,
2015-09-01 11:14:00,71.6,50.3,29.96,SW,235,1.0,1.0,47,0.00,,,0.00,Wunderground v.1.15,2015-09-01 18:14:00,
2015-09-01 11:20:00,72.1,53.0,29.96,ESE,122,1.0,1.0,51,0.00,,,0.00,Wunderground v.1.15,2015-09-01 18:20:00,
2015-09-01 11:25:00,72.8,51.4,29.96,SSE,165,1.0,2.0,47,0.00,,,0.00,Wunderground v.1.15,2015-09-01 18:25:00,
2015-09-01 11:31:00,73.5,52.0,29.95,WSW,248,1.0,2.0,47,0.00,,,0.00,Wunderground v.1.15,2015-09-01 18:31:00,
2015-09-01 11:37:00,73.6,52.7,29.95,SSW,211,1.0,2.0,48,0.00,,,0.00,Wunderground v.1.15,2015-09-01 18:37:00,
2015-09-01 11:43:00,74.2,52.1,29.95,NNW,334,1.0,4.0,46,0.00,,,0.00,Wunderground v.1.15,2015-09-01 18:43:00,
2015-09-01 11:48:00,74.6,50.0,29.94,NW,309,1.0,4.0,42,0.00,,,0.00,Wunderground v.1.15,2015-09-01 18:48:00,
2015-09-01 11:55:00,75.3,49.3,29.94,SE,127,1.0,2.0,40,0.00,,,0.00,Wunderground v.1.15,2015-09-01 18:55:00,
2015-09-01 12:00:00,76.2,53.3,29.94,SSE,148,0.0,1.0,45,0.00,,,0.00,Wunderground v.1.15,2015-09-01 19:00:00,
2015-09-01 12:06:00,77.2,51.0,29.93,ENE,65,1.0,1.0,40,0.00,,,0.00,Wunderground v.1.15,2015-09-01 19:06:00,
2015-09-01 12:12:00,77.8,51.5,29.93,South,187,1.0,1.0,40,0.00,,,0.00,Wunderground v.1.15,2015-09-01 19:12:00,
2015-09-01 12:17:00,78.3,54.6,29.92,East,89,1.0,3.0,44,0.00,,,0.00,Wunderground v.1.15,2015-09-01 19:17:00,
2015-09-01 12:23:00,78.3,52.0,29.92,SE,126,1.0,2.0,40,0.00,,,0.00,Wunderground v.1.15,2015-09-01 19:23:00,
2015-09-01 12:25:00,78.4,52.7,29.92,NW,321,1.0,5.0,41,0.00,,,0.00,Wunderground v.1.15,2015-09-01 19:25:00,
2015-09-01 12:31:00,79.0,50.5,29.92,WNW,287,1.0,2.0,37,0.00,,,0.00,Wunderground v.1.15,2015-09-01 19:31:00,
2015-09-01 12:37:00,79.5,50.2,29.91,NW,309,1.0,4.0,36,0.00,,,0.00,Wunderground v.1.15,2015-09-01 19:37:00,
2015-09-01 12:42:00,80.0,52.8,29.91,South,188,1.0,2.0,39,0.00,,,0.00,Wunderground v.1.15,2015-09-01 19:42:00,
2015-09-01 12:48:00,80.7,49.7,29.91,WNW,295,1.0,3.0,34,0.00,,,0.00,Wunderground v.1.15,2015-09-01 19:48:00,
2015-09-01 12:54:00,81.0,53.0,29.91,NE,42,1.0,2.0,38,0.00,,,0.00,Wunderground v.1.15,2015-09-01 19:54:00,
2015-09-01 13:00:00,81.5,50.4,29.90,NNW,338,2.0,2.0,34,0.00,,,0.00,Wunderground v.1.15,2015-09-01 20:00:00,
2015-09-01 13:06:00,82.0,51.6,29.90,ESE,107,2.0,2.0,35,0.00,,,0.00,Wunderground v.1.15,2015-09-01 20:06:00,
2015-09-01 13:12:00,82.7,51.5,29.90,East,101,1.0,2.0,34,0.00,,,0.00,Wunderground v.1.15,2015-09-01 20:12:00,
2015-09-01 13:18:00,82.8,49.9,29.90,NNW,345,1.0,2.0,32,0.00,,,0.00,Wunderground v.1.15,2015-09-01 20:18:00,
2015-09-01 13:24:00,83.4,50.4,29.89,East,97,1.0,2.0,32,0.00,,,0.00,Wunderground v.1.15,2015-09-01 20:24:00,
2015-09-01 13:30:00,83.4,50.4,29.89,North,352,1.0,1.0,32,0.00,,,0.00,Wunderground v.1.15,2015-09-01 20:30:00,
2015-09-01 13:35:00,83.9,48.2,29.88,NW,326,1.0,8.0,29,0.00,,,0.00,Wunderground v.1.15,2015-09-01 20:35:00,
2015-09-01 13:42:00,84.1,52.7,29.88,East,92,1.0,8.0,34,0.00,,,0.00,Wunderground v.1.15,2015-09-01 20:42:00,
2015-09-01 13:48:00,84.2,49.4,29.88,NNW,329,2.0,8.0,30,0.00,,,0.00,Wunderground v.1.15,2015-09-01 20:48:00,
2015-09-01 13:54:00,84.8,52.5,29.88,SSE,165,1.0,8.0,33,0.00,,,0.00,Wunderground v.1.15,2015-09-01 20:54:00,
2015-09-01 14:05:00,85.2,53.7,29.88,SE,142,1.0,2.0,34,0.00,,,0.00,Wunderground v.1.15,2015-09-01 21:05:00,
2015-09-01 14:11:00,85.6,47.8,29.88,SSW,211,0.0,0.0,27,0.00,,,0.00,Wunderground v.1.15,2015-09-01 21:11:00,
2015-09-01 14:17:00,85.6,48.8,29.88,ESE,110,0.0,0.0,28,0.00,,,0.00,Wunderground v.1.15,2015-09-01 21:17:00,